sensor_id;sensor_type;location;lat;lon;timestamp;pressure;altitude;pressure_sealevel;temperature;humidity
70521;BME280;58442;52.716;23.560;2023-04-05T00:01:01;101860.05;;;-0.01;68.88
70521;BME280;58442;52.716;23.560;2023-04-05T00:03:07;101859.57;;;0.02;68.88
70521;BME280;58442;52.716;23.560;2023-04-05T00:05:13;101861.73;;;0.05;68.91
70521;BME280;58442;52.716;23.560;2023-04-05T00:07:14;101863.13;;;0.08;68.96
70521;BME280;58442;52.716;23.560;2023-04-05T00:09:19;101866.89;;;0.12;68.95
70521;BME280;58442;52.716;23.560;2023-04-05T00:11:21;101865.03;;;0.12;68.96
70521;BME280;58442;52.716;23.560;2023-04-05T00:13:28;101860.26;;;0.14;69.05
70521;BME280;58442;52.716;23.560;2023-04-05T00:15:30;101862.42;;;0.17;69.07
70521;BME280;58442;52.716;23.560;2023-04-05T00:17:35;101861.10;;;0.20;69.09
70521;BME280;58442;52.716;23.560;2023-04-05T00:19:37;101859.02;;;0.22;69.08
70521;BME280;58442;52.716;23.560;2023-04-05T00:21:43;101853.95;;;0.25;69.08
70521;BME280;58442;52.716;23.560;2023-04-05T00:23:44;101861.23;;;0.30;69.07
70521;BME280;58442;52.716;23.560;2023-04-05T00:25:46;101859.11;;;0.32;69.04
70521;BME280;58442;52.716;23.560;2023-04-05T00:27:48;101856.98;;;0.34;69.04
70521;BME280;58442;52.716;23.560;2023-04-05T00:29:58;101850.34;;;0.37;69.04
70521;BME280;58442;52.716;23.560;2023-04-05T00:31:59;101849.02;;;0.39;69.03
70521;BME280;58442;52.716;23.560;2023-04-05T00:34:01;101849.59;;;0.41;69.00
70521;BME280;58442;52.716;23.560;2023-04-05T00:36:11;101844.80;;;0.43;68.96
70521;BME280;58442;52.716;23.560;2023-04-05T00:38:13;101843.73;;;0.44;68.93
70521;BME280;58442;52.716;23.560;2023-04-05T00:40:14;101854.98;;;0.46;68.95
70521;BME280;58442;52.716;23.560;2023-04-05T00:42:16;101847.53;;;0.48;68.91
70521;BME280;58442;52.716;23.560;2023-04-05T00:44:17;101842.99;;;0.49;68.90
70521;BME280;58442;52.716;23.560;2023-04-05T00:46:28;101846.47;;;0.49;68.95
70521;BME280;58442;52.716;23.560;2023-04-05T00:48:30;101846.20;;;0.51;69.02
70521;BME280;58442;52.716;23.560;2023-04-05T00:50:32;101845.14;;;0.52;69.00
70521;BME280;58442;52.716;23.560;2023-04-05T00:52:35;101843.01;;;0.54;68.98
70521;BME280;58442;52.716;23.560;2023-04-05T00:54:43;101841.72;;;0.57;68.98
70521;BME280;58442;52.716;23.560;2023-04-05T00:56:45;101846.82;;;0.58;69.01
70521;BME280;58442;52.716;23.560;2023-04-05T00:58:47;101840.14;;;0.61;68.96
70521;BME280;58442;52.716;23.560;2023-04-05T01:03:08;101836.40;;;0.62;68.90
70521;BME280;58442;52.716;23.560;2023-04-05T01:07:50;101835.10;;;0.64;68.96
70521;BME280;58442;52.716;23.560;2023-04-05T01:10:03;101835.38;;;0.68;68.90
70521;BME280;58442;52.716;23.560;2023-04-05T01:12:09;101833.29;;;0.70;68.87
70521;BME280;58442;52.716;23.560;2023-04-05T01:14:12;101834.90;;;0.71;68.88
70521;BME280;58442;52.716;23.560;2023-04-05T01:16:14;101837.57;;;0.71;68.89
70521;BME280;58442;52.716;23.560;2023-04-05T01:18:17;101823.94;;;0.72;68.89
70521;BME280;58442;52.716;23.560;2023-04-05T01:20:22;101833.30;;;0.75;68.86
70521;BME280;58442;52.716;23.560;2023-04-05T01:24:52;101826.14;;;0.80;68.70
70521;BME280;58442;52.716;23.560;2023-04-05T01:27:06;101826.45;;;0.84;68.64
70521;BME280;58442;52.716;23.560;2023-04-05T01:36:05;101813.62;;;0.86;68.61
70521;BME280;58442;52.716;23.560;2023-04-05T01:38:10;101818.96;;;0.86;68.65
70521;BME280;58442;52.716;23.560;2023-04-05T01:40:15;101829.13;;;0.84;68.71
70521;BME280;58442;52.716;23.560;2023-04-05T01:42:22;101827.25;;;0.85;68.74
70521;BME280;58442;52.716;23.560;2023-04-05T01:44:25;101827.00;;;0.86;68.71
70521;BME280;58442;52.716;23.560;2023-04-05T01:46:26;101819.51;;;0.88;68.72
70521;BME280;58442;52.716;23.560;2023-04-05T01:48:28;101830.52;;;0.92;68.69
70521;BME280;58442;52.716;23.560;2023-04-05T01:50:29;101824.65;;;0.95;68.61
70521;BME280;58442;52.716;23.560;2023-04-05T01:52:34;101826.26;;;0.96;68.59
70521;BME280;58442;52.716;23.560;2023-04-05T01:54:36;101829.77;;;0.96;68.60
70521;BME280;58442;52.716;23.560;2023-04-05T01:56:37;101828.70;;;0.97;68.57
70521;BME280;58442;52.716;23.560;2023-04-05T01:58:38;101824.96;;;0.98;68.54
70521;BME280;58442;52.716;23.560;2023-04-05T02:00:53;101822.83;;;1.00;68.56
70521;BME280;58442;52.716;23.560;2023-04-05T02:02:55;101820.95;;;1.01;68.58
70521;BME280;58442;52.716;23.560;2023-04-05T02:04:57;101824.18;;;1.03;68.52
70521;BME280;58442;52.716;23.560;2023-04-05T02:06:58;101823.94;;;1.04;68.43
70521;BME280;58442;52.716;23.560;2023-04-05T02:09:04;101827.69;;;1.03;68.47
70521;BME280;58442;52.716;23.560;2023-04-05T02:11:05;101823.37;;;1.02;68.50
70521;BME280;58442;52.716;23.560;2023-04-05T02:13:07;101823.37;;;1.02;68.51
70521;BME280;58442;52.716;23.560;2023-04-05T02:15:09;101830.59;;;1.02;68.56
70521;BME280;58442;52.716;23.560;2023-04-05T02:17:19;101821.49;;;1.03;68.58
70521;BME280;58442;52.716;23.560;2023-04-05T02:19:22;101831.97;;;1.04;68.59
70521;BME280;58442;52.716;23.560;2023-04-05T02:21:23;101820.46;;;1.04;68.55
70521;BME280;58442;52.716;23.560;2023-04-05T02:23:25;101814.30;;;1.03;68.57
70521;BME280;58442;52.716;23.560;2023-04-05T02:25:34;101819.66;;;1.03;68.55
70521;BME280;58442;52.716;23.560;2023-04-05T02:27:35;101808.95;;;1.03;68.59
70521;BME280;58442;52.716;23.560;2023-04-05T02:29:37;101812.43;;;1.04;68.59
70521;BME280;58442;52.716;23.560;2023-04-05T02:31:39;101818.01;;;1.02;68.61
70521;BME280;58442;52.716;23.560;2023-04-05T02:33:50;101827.11;;;1.01;68.64
70521;BME280;58442;52.716;23.560;2023-04-05T02:35:52;101822.83;;;1.00;68.71
70521;BME280;58442;52.716;23.560;2023-04-05T02:37:53;101825.50;;;1.00;68.71
70521;BME280;58442;52.716;23.560;2023-04-05T02:39:56;101821.76;;;1.01;68.71
70521;BME280;58442;52.716;23.560;2023-04-05T02:42:04;101828.22;;;1.05;68.65
70521;BME280;58442;52.716;23.560;2023-04-05T02:44:06;101825.02;;;1.08;68.61
70521;BME280;58442;52.716;23.560;2023-04-05T02:46:07;101817.57;;;1.11;68.51
70521;BME280;58442;52.716;23.560;2023-04-05T02:48:08;101823.73;;;1.11;68.49
70521;BME280;58442;52.716;23.560;2023-04-05T02:50:19;101818.60;;;1.09;68.56
70521;BME280;58442;52.716;23.560;2023-04-05T02:52:23;101819.98;;;1.12;68.61
70521;BME280;58442;52.716;23.560;2023-04-05T02:54:24;101823.46;;;1.13;68.55
70521;BME280;58442;52.716;23.560;2023-04-05T02:56:26;101821.59;;;1.13;68.55
70521;BME280;58442;52.716;23.560;2023-04-05T02:58:34;101822.39;;;1.14;68.54
70521;BME280;58442;52.716;23.560;2023-04-05T03:00:36;101822.94;;;1.16;68.54
70521;BME280;58442;52.716;23.560;2023-04-05T03:02:37;101819.19;;;1.17;68.52
70521;BME280;58442;52.716;23.560;2023-04-05T03:04:40;101826.98;;;1.18;68.47
70521;BME280;58442;52.716;23.560;2023-04-05T03:06:49;101821.06;;;1.16;68.52
70521;BME280;58442;52.716;23.560;2023-04-05T03:08:54;101824.30;;;1.18;68.56
70521;BME280;58442;52.716;23.560;2023-04-05T03:10:57;101820.56;;;1.19;68.56
70521;BME280;58442;52.716;23.560;2023-04-05T03:12:58;101822.43;;;1.19;68.58
70521;BME280;58442;52.716;23.560;2023-04-05T03:15:05;101826.19;;;1.18;68.65
70521;BME280;58442;52.716;23.560;2023-04-05T03:17:07;101827.22;;;1.17;68.71
70521;BME280;58442;52.716;23.560;2023-04-05T03:19:08;101828.29;;;1.16;68.74
70521;BME280;58442;52.716;23.560;2023-04-05T03:21:10;101835.25;;;1.17;68.79
70521;BME280;58442;52.716;23.560;2023-04-05T03:23:19;101825.60;;;1.16;68.91
70521;BME280;58442;52.716;23.560;2023-04-05T03:25:21;101830.73;;;1.17;68.82
70521;BME280;58442;52.716;23.560;2023-04-05T03:27:24;101826.19;;;1.18;68.79
70521;BME280;58442;52.716;23.560;2023-04-05T03:29:26;101827.79;;;1.19;68.76
70521;BME280;58442;52.716;23.560;2023-04-05T03:31:34;101825.66;;;1.21;68.75
70521;BME280;58442;52.716;23.560;2023-04-05T03:33:36;101827.25;;;1.22;68.71
70521;BME280;58442;52.716;23.560;2023-04-05T03:35:37;101823.28;;;1.24;68.69
70521;BME280;58442;52.716;23.560;2023-04-05T03:37:39;101825.96;;;1.24;68.68
70521;BME280;58442;52.716;23.560;2023-04-05T03:39:50;101826.19;;;1.23;68.72
70521;BME280;58442;52.716;23.560;2023-04-05T03:41:51;101823.78;;;1.21;68.86
70521;BME280;58442;52.716;23.560;2023-04-05T03:43:52;101818.43;;;1.21;68.86
70521;BME280;58442;52.716;23.560;2023-04-05T03:45:54;101821.36;;;1.20;68.90
70521;BME280;58442;52.716;23.560;2023-04-05T03:48:05;101822.70;;;1.17;69.00
70521;BME280;58442;52.716;23.560;2023-04-05T03:50:07;101821.33;;;1.15;69.08
70521;BME280;58442;52.716;23.560;2023-04-05T03:52:08;101824.27;;;1.13;69.13
70521;BME280;58442;52.716;23.560;2023-04-05T03:54:10;101821.86;;;1.12;69.18
70521;BME280;58442;52.716;23.560;2023-04-05T03:56:20;101825.34;;;1.12;69.27
70521;BME280;58442;52.716;23.560;2023-04-05T03:58:22;101815.70;;;1.11;69.33
70521;BME280;58442;52.716;23.560;2023-04-05T04:00:25;101819.98;;;1.12;69.36
70521;BME280;58442;52.716;23.560;2023-04-05T04:02:26;101820.77;;;1.13;69.37
70521;BME280;58442;52.716;23.560;2023-04-05T04:04:35;101821.06;;;1.16;69.35
70521;BME280;58442;52.716;23.560;2023-04-05T04:06:36;101819.77;;;1.19;69.30
70521;BME280;58442;52.716;23.560;2023-04-05T04:08:37;101824.59;;;1.22;69.28
70521;BME280;58442;52.716;23.560;2023-04-05T04:10:39;101821.10;;;1.21;69.21
70521;BME280;58442;52.716;23.560;2023-04-05T04:12:50;101824.84;;;1.20;69.28
70521;BME280;58442;52.716;23.560;2023-04-05T04:14:51;101821.36;;;1.20;69.33
70521;BME280;58442;52.716;23.560;2023-04-05T04:16:52;101822.43;;;1.19;69.38
70521;BME280;58442;52.716;23.560;2023-04-05T04:18:54;101824.84;;;1.20;69.43
70521;BME280;58442;52.716;23.560;2023-04-05T04:21:05;101818.43;;;1.21;69.41
70521;BME280;58442;52.716;23.560;2023-04-05T04:23:07;101822.48;;;1.24;69.41
70521;BME280;58442;52.716;23.560;2023-04-05T04:25:10;101827.56;;;1.25;69.37
70521;BME280;58442;52.716;23.560;2023-04-05T04:27:16;101831.05;;;1.26;69.38
70521;BME280;58442;52.716;23.560;2023-04-05T04:29:20;101824.63;;;1.27;69.42
70521;BME280;58442;52.716;23.560;2023-04-05T04:31:31;101831.32;;;1.29;69.47
70521;BME280;58442;52.716;23.560;2023-04-05T04:33:33;101826.77;;;1.30;69.50
70521;BME280;58442;52.716;23.560;2023-04-05T04:35:34;101836.18;;;1.32;69.45
70521;BME280;58442;52.716;23.560;2023-04-05T04:37:38;101830.30;;;1.35;69.44
70521;BME280;58442;52.716;23.560;2023-04-05T04:39:46;101835.38;;;1.37;69.45
70521;BME280;58442;52.716;23.560;2023-04-05T04:41:48;101823.63;;;1.38;69.43
70521;BME280;58442;52.716;23.560;2023-04-05T04:43:54;101827.92;;;1.39;69.42
70521;BME280;58442;52.716;23.560;2023-04-05T04:46:02;101825.24;;;1.39;69.41
70521;BME280;58442;52.716;23.560;2023-04-05T04:48:17;101827.12;;;1.39;69.46
70521;BME280;58442;52.716;23.560;2023-04-05T04:50:19;101825.24;;;1.39;69.52
70521;BME280;58442;52.716;23.560;2023-04-05T04:52:21;101837.30;;;1.42;69.45
70521;BME280;58442;52.716;23.560;2023-04-05T04:54:22;101828.46;;;1.41;69.44
70521;BME280;58442;52.716;23.560;2023-04-05T04:56:29;101834.92;;;1.45;69.45
70521;BME280;58442;52.716;23.560;2023-04-05T04:58:31;101834.40;;;1.48;69.38
70521;BME280;58442;52.716;23.560;2023-04-05T05:00:32;101840.05;;;1.52;69.28
70521;BME280;58442;52.716;23.560;2023-04-05T05:02:33;101830.15;;;1.52;69.25
70521;BME280;58442;52.716;23.560;2023-04-05T05:04:44;101842.98;;;1.50;69.27
70521;BME280;58442;52.716;23.560;2023-04-05T05:06:46;101846.45;;;1.51;69.31
70521;BME280;58442;52.716;23.560;2023-04-05T05:08:50;101844.61;;;1.51;69.29
70521;BME280;58442;52.716;23.560;2023-04-05T05:10:52;101849.70;;;1.53;69.32
70521;BME280;58442;52.716;23.560;2023-04-05T05:12:59;101855.34;;;1.56;69.25
70521;BME280;58442;52.716;23.560;2023-04-05T05:15:00;101846.26;;;1.62;69.22
70521;BME280;58442;52.716;23.560;2023-04-05T05:17:02;101849.25;;;1.66;69.14
70521;BME280;58442;52.716;23.560;2023-04-05T05:19:08;101853.80;;;1.71;69.04
70521;BME280;58442;52.716;23.560;2023-04-05T05:21:14;101849.25;;;1.71;68.97
70521;BME280;58442;52.716;23.560;2023-04-05T05:23:15;101846.07;;;1.74;68.98
70521;BME280;58442;52.716;23.560;2023-04-05T05:25:17;101848.75;;;1.74;68.98
70521;BME280;58442;52.716;23.560;2023-04-05T05:27:19;101846.33;;;1.78;68.93
70521;BME280;58442;52.716;23.560;2023-04-05T05:29:29;101849.84;;;1.83;68.86
70521;BME280;58442;52.716;23.560;2023-04-05T05:31:32;101848.28;;;1.87;68.69
70521;BME280;58442;52.716;23.560;2023-04-05T05:33:33;101858.20;;;1.87;68.70
70521;BME280;58442;52.716;23.560;2023-04-05T05:35:35;101850.69;;;1.89;68.71
70521;BME280;58442;52.716;23.560;2023-04-05T05:37:44;101852.84;;;1.92;68.62
70521;BME280;58442;52.716;23.560;2023-04-05T05:39:45;101848.84;;;1.95;68.56
70521;BME280;58442;52.716;23.560;2023-04-05T05:41:47;101851.79;;;1.98;68.53
70521;BME280;58442;52.716;23.560;2023-04-05T05:43:48;101859.86;;;2.03;68.47
70521;BME280;58442;52.716;23.560;2023-04-05T05:46:01;101865.76;;;2.05;68.45
70521;BME280;58442;52.716;23.560;2023-04-05T05:48:03;101864.18;;;2.09;68.47
70521;BME280;58442;52.716;23.560;2023-04-05T05:50:06;101862.59;;;2.13;68.38
70521;BME280;58442;52.716;23.560;2023-04-05T05:52:09;101858.30;;;2.17;68.33
70521;BME280;58442;52.716;23.560;2023-04-05T05:54:14;101862.09;;;2.22;68.25
70521;BME280;58442;52.716;23.560;2023-04-05T05:56:16;101867.71;;;2.25;68.20
70521;BME280;58442;52.716;23.560;2023-04-05T05:58:17;101867.48;;;2.27;68.11
70521;BME280;58442;52.716;23.560;2023-04-05T06:00:19;101870.96;;;2.27;68.11
70521;BME280;58442;52.716;23.560;2023-04-05T06:02:29;101869.89;;;2.28;68.06
70521;BME280;58442;52.716;23.560;2023-04-05T06:04:32;101869.08;;;2.28;68.07
70521;BME280;58442;52.716;23.560;2023-04-05T06:06:34;101871.49;;;2.29;68.09
70521;BME280;58442;52.716;23.560;2023-04-05T06:08:35;101865.59;;;2.32;68.06
70521;BME280;58442;52.716;23.560;2023-04-05T06:10:44;101873.66;;;2.37;68.04
70521;BME280;58442;52.716;23.560;2023-04-05T06:12:46;101862.66;;;2.39;67.99
70521;BME280;58442;52.716;23.560;2023-04-05T06:14:48;101870.19;;;2.42;67.90
70521;BME280;58442;52.716;23.560;2023-04-05T06:16:49;101864.03;;;2.41;67.95
70521;BME280;58442;52.716;23.560;2023-04-05T06:19:00;101862.68;;;2.44;67.97
70521;BME280;58442;52.716;23.560;2023-04-05T06:21:04;101861.63;;;2.50;67.88
70521;BME280;58442;52.716;23.560;2023-04-05T06:23:06;101867.54;;;2.57;67.72
70521;BME280;58442;52.716;23.560;2023-04-05T06:25:08;101864.87;;;2.62;67.57
70521;BME280;58442;52.716;23.560;2023-04-05T06:27:14;101865.43;;;2.69;67.51
70521;BME280;58442;52.716;23.560;2023-04-05T06:29:16;101865.70;;;2.78;67.42
70521;BME280;58442;52.716;23.560;2023-04-05T06:31:19;101868.66;;;2.82;67.33
70521;BME280;58442;52.716;23.560;2023-04-05T06:33:21;101871.89;;;2.89;67.34
70521;BME280;58442;52.716;23.560;2023-04-05T06:35:30;101869.20;;;2.99;67.20
70521;BME280;58442;52.716;23.560;2023-04-05T06:37:32;101870.83;;;3.10;67.09
70521;BME280;58442;52.716;23.560;2023-04-05T06:39:33;101871.61;;;3.21;66.87
70521;BME280;58442;52.716;23.560;2023-04-05T06:41:34;101869.73;;;3.32;66.69
70521;BME280;58442;52.716;23.560;2023-04-05T06:43:44;101870.79;;;3.41;66.49
70521;BME280;58442;52.716;23.560;2023-04-05T06:45:46;101869.16;;;3.50;66.30
70521;BME280;58442;52.716;23.560;2023-04-05T06:47:47;101872.39;;;3.57;66.01
70521;BME280;58442;52.716;23.560;2023-04-05T06:49:49;101860.56;;;3.58;65.90
70521;BME280;58442;52.716;23.560;2023-04-05T06:51:59;101868.06;;;3.56;65.81
70521;BME280;58442;52.716;23.560;2023-04-05T06:54:05;101862.69;;;3.61;65.75
70521;BME280;58442;52.716;23.560;2023-04-05T06:56:07;101870.22;;;3.64;65.51
70521;BME280;58442;52.716;23.560;2023-04-05T06:58:08;101864.57;;;3.66;65.42
70521;BME280;58442;52.716;23.560;2023-04-05T07:00:15;101864.30;;;3.62;65.33
70521;BME280;58442;52.716;23.560;2023-04-05T07:02:17;101866.73;;;3.59;65.25
70521;BME280;58442;52.716;23.560;2023-04-05T07:04:18;101867.54;;;3.59;65.07
70521;BME280;58442;52.716;23.560;2023-04-05T07:06:20;101871.84;;;3.60;64.99
70521;BME280;58442;52.716;23.560;2023-04-05T07:08:31;101873.72;;;3.60;64.85
70521;BME280;58442;52.716;23.560;2023-04-05T07:10:32;101864.05;;;3.53;64.61
70521;BME280;58442;52.716;23.560;2023-04-05T07:12:34;101875.08;;;3.52;64.66
70521;BME280;58442;52.716;23.560;2023-04-05T07:14:36;101874.84;;;3.43;64.57
70521;BME280;58442;52.716;23.560;2023-04-05T07:16:44;101881.81;;;3.39;64.48
70521;BME280;58442;52.716;23.560;2023-04-05T07:18:46;101878.32;;;3.39;64.31
70521;BME280;58442;52.716;23.560;2023-04-05T07:20:47;101881.01;;;3.39;64.25
70521;BME280;58442;52.716;23.560;2023-04-05T07:22:49;101885.87;;;3.37;64.08
70521;BME280;58442;52.716;23.560;2023-04-05T07:24:59;101889.88;;;3.39;64.10
70521;BME280;58442;52.716;23.560;2023-04-05T07:27:02;101880.45;;;3.47;63.86
70521;BME280;58442;52.716;23.560;2023-04-05T07:29:04;101877.48;;;3.53;63.53
70521;BME280;58442;52.716;23.560;2023-04-05T07:31:06;101883.67;;;3.59;63.44
70521;BME280;58442;52.716;23.560;2023-04-05T07:33:14;101876.13;;;3.66;63.33
70521;BME280;58442;52.716;23.560;2023-04-05T07:35:16;101877.72;;;3.72;63.10
70521;BME280;58442;52.716;23.560;2023-04-05T07:37:17;101875.28;;;3.76;63.09
70521;BME280;58442;52.716;23.560;2023-04-05T07:39:19;101879.84;;;3.80;62.95
70521;BME280;58442;52.716;23.560;2023-04-05T07:41:29;101884.13;;;3.92;62.49
70521;BME280;58442;52.716;23.560;2023-04-05T07:43:36;101875.50;;;3.95;62.26
70521;BME280;58442;52.716;23.560;2023-04-05T07:45:37;101880.59;;;4.01;61.95
70521;BME280;58442;52.716;23.560;2023-04-05T07:47:38;101882.18;;;4.07;61.74
70521;BME280;58442;52.716;23.560;2023-04-05T07:49:44;101877.32;;;4.09;61.61
70521;BME280;58442;52.716;23.560;2023-04-05T07:51:46;101883.78;;;4.14;61.32
70521;BME280;58442;52.716;23.560;2023-04-05T07:53:48;101884.87;;;4.07;61.38
70521;BME280;58442;52.716;23.560;2023-04-05T07:55:49;101873.30;;;4.12;61.27
70521;BME280;58442;52.716;23.560;2023-04-05T07:57:59;101873.53;;;4.16;61.13
70521;BME280;58442;52.716;23.560;2023-04-05T08:00:01;101879.20;;;4.14;60.97
70521;BME280;58442;52.716;23.560;2023-04-05T08:02:05;101874.65;;;4.04;60.67
70521;BME280;58442;52.716;23.560;2023-04-05T08:04:06;101883.84;;;3.93;60.84
70521;BME280;58442;52.716;23.560;2023-04-05T08:06:15;101881.73;;;3.85;60.58
70521;BME280;58442;52.716;23.560;2023-04-05T08:08:20;101886.03;;;3.81;60.61
70521;BME280;58442;52.716;23.560;2023-04-05T08:10:21;101885.23;;;3.80;60.55
70521;BME280;58442;52.716;23.560;2023-04-05T08:12:22;101889.80;;;3.80;60.46
70521;BME280;58442;52.716;23.560;2023-04-05T08:14:29;101892.77;;;3.78;60.07
70521;BME280;58442;52.716;23.560;2023-04-05T08:16:31;101886.59;;;3.78;60.19
70521;BME280;58442;52.716;23.560;2023-04-05T08:18:33;101887.63;;;3.87;60.09
70521;BME280;58442;52.716;23.560;2023-04-05T08:20:37;101886.77;;;4.02;59.85
70521;BME280;58442;52.716;23.560;2023-04-05T08:22:44;101888.60;;;4.11;59.77
70521;BME280;58442;52.716;23.560;2023-04-05T08:24:48;101886.13;;;4.25;59.62
70521;BME280;58442;52.716;23.560;2023-04-05T08:26:50;101890.10;;;4.38;59.43
70521;BME280;58442;52.716;23.560;2023-04-05T08:28:51;101889.22;;;4.53;59.22
70521;BME280;58442;52.716;23.560;2023-04-05T08:30:59;101889.41;;;4.66;59.17
70521;BME280;58442;52.716;23.560;2023-04-05T08:33:01;101896.38;;;4.73;58.88
70521;BME280;58442;52.716;23.560;2023-04-05T08:35:03;101898.23;;;4.77;58.81
70521;BME280;58442;52.716;23.560;2023-04-05T08:37:04;101898.98;;;4.88;58.68
70521;BME280;58442;52.716;23.560;2023-04-05T08:39:14;101893.77;;;5.02;58.49
70521;BME280;58442;52.716;23.560;2023-04-05T08:41:22;101896.85;;;5.19;58.18
70521;BME280;58442;52.716;23.560;2023-04-05T08:43:36;101893.60;;;5.22;58.03
70521;BME280;58442;52.716;23.560;2023-04-05T08:45:48;101888.15;;;5.27;57.97
70521;BME280;58442;52.716;23.560;2023-04-05T08:47:51;101886.73;;;5.35;57.73
70521;BME280;58442;52.716;23.560;2023-04-05T08:49:54;101889.16;;;5.36;57.62
70521;BME280;58442;52.716;23.560;2023-04-05T08:51:58;101883.52;;;5.33;57.30
70521;BME280;58442;52.716;23.560;2023-04-05T08:54:01;101880.06;;;5.27;57.29
70521;BME280;58442;52.716;23.560;2023-04-05T08:56:06;101878.75;;;5.25;57.32
70521;BME280;58442;52.716;23.560;2023-04-05T08:58:12;101878.46;;;5.26;57.17
70521;BME280;58442;52.716;23.560;2023-04-05T09:00:15;101884.36;;;5.28;56.82
70521;BME280;58442;52.716;23.560;2023-04-05T09:02:18;101881.67;;;5.28;56.83
70521;BME280;58442;52.716;23.560;2023-04-05T09:04:23;101885.92;;;5.34;56.82
70521;BME280;58442;52.716;23.560;2023-04-05T09:06:28;101880.97;;;5.46;56.74
70521;BME280;58442;52.716;23.560;2023-04-05T09:08:30;101887.88;;;5.58;56.45
70521;BME280;58442;52.716;23.560;2023-04-05T09:10:32;101881.74;;;5.76;56.04
70521;BME280;58442;52.716;23.560;2023-04-05T09:12:34;101884.89;;;5.83;55.85
70521;BME280;58442;52.716;23.560;2023-04-05T09:14:38;101884.10;;;5.83;56.03
70521;BME280;58442;52.716;23.560;2023-04-05T09:16:40;101882.20;;;5.83;55.68
70521;BME280;58442;52.716;23.560;2023-04-05T09:18:42;101895.77;;;5.78;55.83
70521;BME280;58442;52.716;23.560;2023-04-05T09:20:43;101885.53;;;5.75;55.55
70521;BME280;58442;52.716;23.560;2023-04-05T09:22:51;101886.67;;;5.69;55.80
70521;BME280;58442;52.716;23.560;2023-04-05T09:24:52;101895.30;;;5.71;55.40
70521;BME280;58442;52.716;23.560;2023-04-05T09:29:06;101882.78;;;5.80;55.24
70521;BME280;58442;52.716;23.560;2023-04-05T09:31:07;101892.42;;;5.91;55.18
70521;BME280;58442;52.716;23.560;2023-04-05T09:33:09;101890.09;;;6.03;54.83
70521;BME280;58442;52.716;23.560;2023-04-05T09:35:20;101883.20;;;6.16;54.53
70521;BME280;58442;52.716;23.560;2023-04-05T09:37:22;101892.04;;;6.22;54.20
70521;BME280;58442;52.716;23.560;2023-04-05T09:39:30;101883.44;;;6.20;54.01
70521;BME280;58442;52.716;23.560;2023-04-05T09:44:04;101881.89;;;6.14;53.94
70521;BME280;58442;52.716;23.560;2023-04-05T09:46:06;101884.59;;;6.14;53.62
70521;BME280;58442;52.716;23.560;2023-04-05T09:48:08;101885.69;;;6.13;53.58
70521;BME280;58442;52.716;23.560;2023-04-05T09:50:18;101888.90;;;6.15;53.61
70521;BME280;58442;52.716;23.560;2023-04-05T09:52:22;101888.38;;;6.13;53.58
70521;BME280;58442;52.716;23.560;2023-04-05T09:54:23;101884.64;;;6.09;53.76
70521;BME280;58442;52.716;23.560;2023-04-05T09:56:26;101891.64;;;6.10;53.91
70521;BME280;58442;52.716;23.560;2023-04-05T09:58:31;101880.29;;;6.13;53.76
70521;BME280;58442;52.716;23.560;2023-04-05T10:00:35;101882.64;;;6.19;53.74
70521;BME280;58442;52.716;23.560;2023-04-05T10:02:38;101885.20;;;6.29;53.56
70521;BME280;58442;52.716;23.560;2023-04-05T10:04:42;101884.04;;;6.36;53.40
70521;BME280;58442;52.716;23.560;2023-04-05T10:06:44;101885.88;;;6.40;53.44
70521;BME280;58442;52.716;23.560;2023-04-05T10:08:49;101893.91;;;6.45;53.34
70521;BME280;58442;52.716;23.560;2023-04-05T10:10:51;101886.38;;;6.42;53.30
70521;BME280;58442;52.716;23.560;2023-04-05T10:12:55;101891.04;;;6.37;53.35
70521;BME280;58442;52.716;23.560;2023-04-05T10:14:58;101889.80;;;6.29;53.40
70521;BME280;58442;52.716;23.560;2023-04-05T10:17:09;101885.84;;;6.21;53.41
70521;BME280;58442;52.716;23.560;2023-04-05T10:19:23;101888.90;;;6.15;53.44
70521;BME280;58442;52.716;23.560;2023-04-05T10:21:32;101896.48;;;6.13;53.38
70521;BME280;58442;52.716;23.560;2023-04-05T10:23:38;101894.88;;;6.12;53.34
70521;BME280;58442;52.716;23.560;2023-04-05T10:28:02;101900.84;;;6.09;53.12
70521;BME280;58442;52.716;23.560;2023-04-05T10:30:07;101896.24;;;6.09;52.93
70521;BME280;58442;52.716;23.560;2023-04-05T10:32:22;101897.04;;;6.10;52.93
70521;BME280;58442;52.716;23.560;2023-04-05T10:38:59;101900.04;;;6.08;52.64
70521;BME280;58442;52.716;23.560;2023-04-05T10:41:13;101896.53;;;6.08;52.71
70521;BME280;58442;52.716;23.560;2023-04-05T10:43:22;101902.09;;;6.16;52.60
70521;BME280;58442;52.716;23.560;2023-04-05T10:45:26;101896.00;;;6.29;52.35
70521;BME280;58442;52.716;23.560;2023-04-05T10:47:30;101905.34;;;6.37;52.06
70521;BME280;58442;52.716;23.560;2023-04-05T10:49:38;101904.48;;;6.42;52.15
70521;BME280;58442;52.716;23.560;2023-04-05T10:51:43;101898.28;;;6.41;51.86
70521;BME280;58442;52.716;23.560;2023-04-05T10:53:55;101896.67;;;6.40;51.81
70521;BME280;58442;52.716;23.560;2023-04-05T10:55:57;101897.77;;;6.39;51.70
70521;BME280;58442;52.716;23.560;2023-04-05T10:58:01;101898.28;;;6.41;51.59
70521;BME280;58442;52.716;23.560;2023-04-05T11:00:03;101900.91;;;6.46;51.59
70521;BME280;58442;52.716;23.560;2023-04-05T11:02:09;101891.12;;;6.50;51.51
70521;BME280;58442;52.716;23.560;2023-04-05T11:04:15;101889.96;;;6.56;51.46
70521;BME280;58442;52.716;23.560;2023-04-05T11:06:31;101885.00;;;6.64;51.40
70521;BME280;58442;52.716;23.560;2023-04-05T11:08:33;101895.67;;;6.74;51.05
70521;BME280;58442;52.716;23.560;2023-04-05T11:10:36;101894.07;;;6.73;51.04
70521;BME280;58442;52.716;23.560;2023-04-05T11:17:28;101894.87;;;6.73;51.01
70521;BME280;58442;52.716;23.560;2023-04-05T11:21:44;101898.20;;;6.84;50.45